Time;durP1;ratioP1;P1;durP2;ratioP2;P2;SDS_P1;SDS_P2;PMS_P1;PMS_P2;Temp;Humidity;BMP_temperature;BMP_pressure;BME280_temperature;BME280_humidity;BME280_pressure;Samples;Min_cycle;Max_cycle;Signal;HPM_P1;HPM_P2
2023/10/09 00:01:53;;;;;;;18.80;17.90;;;;;;;-141.02;85.04;41956.81;5094892;28;20713;-63
2023/10/09 00:04:21;;;;;;;17.70;16.90;;;;;;;-141.02;84.90;41977.91;5094724;28;20224;-65
2023/10/09 00:06:48;;;;;;;37.50;35.60;;;;;;;-141.02;84.51;41943.38;5094472;28;20205;-69
2023/10/09 00:09:40;;;;;;;38.88;36.88;;;;;;;-141.02;84.70;41941.44;5094501;28;20731;-67
2023/10/09 00:12:10;;;;;;;38.80;36.83;;;;;;;-141.02;84.95;41939.53;5094715;28;20590;-66
2023/10/09 00:15:14;;;;;;;40.83;38.72;;;;;;;-141.02;85.27;41960.66;5094263;28;20322;-67
2023/10/09 00:17:46;;;;;;;17.80;17.00;;;;;;;-141.02;85.58;41933.78;5094323;28;20247;-69
2023/10/09 00:20:30;;;;;;;17.80;17.00;;;;;;;-141.02;85.36;41956.81;5094312;28;20233;-67
2023/10/09 00:23:01;;;;;;;17.40;16.60;;;;;;;-141.02;83.69;41951.06;5092747;28;20198;-70
2023/10/09 00:25:30;;;;;;;17.17;16.42;;;;;;;-141.02;83.44;41956.81;5093962;28;20312;-69
2023/10/09 00:27:59;;;;;;;35.78;33.97;;;;;;;-141.02;83.90;41951.06;5094012;28;20576;-67
2023/10/09 00:30:29;;;;;;;34.33;32.65;;;;;;;-141.02;84.07;41987.50;5094084;28;20205;-68
2023/10/09 00:33:01;;;;;;;38.83;36.92;;;;;;;-141.02;84.83;41991.34;5112606;27;20323;-69
2023/10/09 00:35:46;;;;;;;36.33;34.58;;;;;;;-141.02;85.32;42006.72;5134871;27;20181;-68
2023/10/09 00:38:23;;;;;;;17.30;16.50;;;;;;;-141.02;85.72;41999.03;5134813;27;20656;-67
2023/10/09 00:41:10;;;;;;;16.42;15.73;;;;;;;-141.02;86.63;41976.00;5134752;27;20184;-68
2023/10/09 00:43:43;;;;;;;17.00;16.30;;;;;;;-141.02;87.05;41976.00;5135093;27;20185;-67
2023/10/09 00:46:23;;;;;;;36.30;34.50;;;;;;;-141.02;87.24;41991.34;5134541;27;20208;-67
2023/10/09 00:48:53;;;;;;;37.13;35.33;;;;;;;-141.02;87.91;42027.81;5134644;27;20185;-67
2023/10/09 00:51:24;;;;;;;38.03;36.13;;;;;;;-141.02;88.64;42000.94;5134559;27;20201;-68
2023/10/09 00:53:52;;;;;;;38.88;36.97;;;;;;;-141.02;89.18;42012.47;5134570;27;20195;-58
2023/10/09 00:56:28;;;;;;;34.38;32.78;;;;;;;-141.02;89.42;41999.03;5134170;27;20673;-58
2023/10/09 00:59:00;;;;;;;16.17;15.48;;;;;;;-141.02;89.07;42018.22;5135287;27;20272;-69
2023/10/09 01:01:34;;;;;;;16.65;15.95;;;;;;;-141.02;89.01;42037.41;5134358;27;20188;-68
2023/10/09 01:04:12;;;;;;;16.90;16.20;;;;;;;-141.02;88.67;42039.34;5134330;27;20185;-66
2023/10/09 01:06:44;;;;;;;35.25;33.55;;;;;;;-141.02;88.46;42052.78;5133624;27;20208;-67
2023/10/09 01:09:16;;;;;;;36.75;35.05;;;;;;;-141.02;88.95;42047.00;5134459;27;20199;-67
2023/10/09 01:11:51;;;;;;;28.45;27.15;;;;;;;-141.02;88.25;42070.03;5134136;27;20210;-67
2023/10/09 01:14:21;;;;;;;38.13;36.22;;;;;;;-141.02;88.02;42083.47;5133962;27;20184;-67
2023/10/09 01:16:48;;;;;;;38.45;36.55;;;;;;;-141.02;88.35;42083.47;5133984;27;20189;-66
2023/10/09 01:19:23;;;;;;;39.00;37.10;;;;;;;-141.02;88.25;42033.56;5134265;27;20192;-68
2023/10/09 01:25:13;;;;;;;41.70;39.60;;;;;;;-141.02;88.94;42121.88;5133954;27;20227;-67
2023/10/09 01:31:14;;;;;;;43.70;41.50;;;;;;;-141.02;88.71;42141.06;5133941;27;20637;-67
2023/10/09 01:34:17;;;;;;;42.92;40.78;;;;;;;-141.02;89.30;42137.22;5115673;27;20228;-67
2023/10/09 01:43:32;;;;;;;41.88;39.78;;;;;;;-141.02;89.34;42148.75;5093367;28;20180;-66
2023/10/09 01:46:04;;;;;;;40.38;38.38;;;;;;;-141.02;89.09;42164.09;5092611;28;20214;-65
2023/10/09 01:48:46;;;;;;;40.03;38.03;;;;;;;-141.02;90.00;42190.97;5092627;28;20197;-67
2023/10/09 01:51:38;;;;;;;42.70;40.50;;;;;;;-141.02;90.27;42179.44;5092785;28;20189;-67
2023/10/09 02:00:54;;;;;;;43.60;41.30;;;;;;;-141.02;90.96;42179.44;5093102;28;20288;-68
2023/10/09 02:06:52;;;;;;;42.42;40.28;;;;;;;-141.02;91.96;42144.91;5092964;28;20255;-67
2023/10/09 02:09:55;;;;;;;42.30;40.20;;;;;;;-141.02;92.63;42125.69;5092540;28;20196;-66
2023/10/09 02:12:23;;;;;;;40.35;38.35;;;;;;;-141.02;92.89;42087.31;5092524;28;20197;-64
2023/10/09 02:14:53;;;;;;;39.78;37.78;;;;;;;-141.02;93.94;42071.97;5092513;28;20227;-68
2023/10/09 02:17:28;;;;;;;39.53;37.63;;;;;;;-141.02;94.81;42012.47;5092698;28;20629;-69
2023/10/09 02:19:57;;;;;;;40.78;38.75;;;;;;;-141.02;94.68;42008.63;5092463;28;20246;-64
2023/10/09 02:26:04;;;;;;;41.22;39.15;;;;;;;-141.02;95.36;41899.22;5092176;28;20251;-67
2023/10/09 02:28:33;;;;;;;38.85;36.95;;;;;;;-141.02;95.62;41901.16;5092066;28;20197;-67
2023/10/09 02:31:28;;;;;;;39.03;37.13;;;;;;;-141.02;95.71;41853.16;5092322;28;20209;-67
2023/10/09 02:37:23;;;;;;;39.05;37.15;;;;;;;-141.02;96.39;41803.28;5119947;28;20314;-68
2023/10/09 02:46:45;;;;;;;40.60;38.58;;;;;;;-141.02;96.46;41774.47;5132866;28;20292;-66
2023/10/09 02:52:53;;;;;;;35.65;33.95;;;;;;;-141.02;96.43;41745.69;5132763;28;20248;-68
2023/10/09 02:55:25;;;;;;;34.85;33.15;;;;;;;-141.02;96.95;41726.50;5132693;27;20263;-63
2023/10/09 02:58:21;;;;;;;35.33;33.63;;;;;;;-141.02;96.26;41730.34;5132651;28;20666;-67
2023/10/09 03:01:13;;;;;;;38.20;36.30;;;;;;;-141.02;96.81;41715.00;5132719;27;20249;-66
2023/10/09 03:07:03;;;;;;;35.42;33.72;;;;;;;-141.02;97.37;41724.59;5132707;28;20248;-68
2023/10/09 03:09:32;;;;;;;34.28;32.67;;;;;;;-141.02;97.29;41722.66;5132506;28;20591;-68
2023/10/09 03:12:03;;;;;;;34.85;33.20;;;;;;;-141.02;97.74;41716.91;5132773;28;20200;-67
2023/10/09 03:14:30;;;;;;;34.72;33.13;;;;;;;-141.02;97.48;41718.81;5132469;27;20283;-68
2023/10/09 03:16:58;;;;;;;35.78;34.08;;;;;;;-141.02;97.77;41709.22;5132455;28;20580;-68
2023/10/09 03:19:28;;;;;;;33.50;31.95;;;;;;;-141.02;97.94;41716.91;5132749;28;20280;-65
2023/10/09 03:21:57;;;;;;;30.50;29.20;;;;;;;-141.02;97.91;41711.16;5132766;27;20193;-67
2023/10/09 03:24:24;;;;;;;37.65;35.85;;;;;;;-141.02;97.72;41730.34;5132333;28;20189;-67
2023/10/09 03:26:55;;;;;;;37.13;35.33;;;;;;;-141.02;97.33;41716.91;5132693;28;20253;-67
2023/10/09 03:32:48;;;;;;;32.95;31.40;;;;;;;-141.02;98.34;41699.63;5136135;27;20283;-67
2023/10/09 03:35:23;;;;;;;33.00;31.40;;;;;;;-141.02;97.97;41707.31;5136094;27;20188;-67
2023/10/09 03:37:59;;;;;;;34.05;32.35;;;;;;;-141.02;98.17;41695.81;5135617;27;20250;-66
2023/10/09 03:40:28;;;;;;;33.85;32.25;;;;;;;-141.02;99.01;41688.13;5136054;27;20646;-67
2023/10/09 03:42:57;;;;;;;35.10;33.40;;;;;;;-141.02;99.36;41672.78;5136213;27;20272;-67
2023/10/09 03:45:27;;;;;;;34.50;32.80;;;;;;;-141.02;99.40;41691.97;5135819;27;20196;-67
2023/10/09 03:48:01;;;;;;;34.05;32.45;;;;;;;-141.02;99.06;41661.25;5136059;27;20223;-66
2023/10/09 03:50:35;;;;;;;36.35;34.55;;;;;;;-141.02;99.71;41665.09;5136072;27;20249;-67
2023/10/09 03:53:07;;;;;;;33.85;32.25;;;;;;;-141.02;99.49;41665.09;5136244;27;20180;-66
2023/10/09 03:55:37;;;;;;;34.90;33.20;;;;;;;-141.02;99.62;41634.38;5135962;27;20192;-66
2023/10/09 03:58:06;;;;;;;33.30;31.80;;;;;;;-141.02;100.00;41634.38;5135606;27;20669;-67
2023/10/09 04:00:44;;;;;;;34.40;32.80;;;;;;;-141.02;100.00;41634.38;5135884;27;20200;-65
2023/10/09 04:03:14;;;;;;;33.97;32.38;;;;;;;-141.02;100.00;41603.69;5135777;27;20192;-66
2023/10/09 04:05:42;;;;;;;32.95;31.45;;;;;;;-141.02;100.00;41584.50;5135420;27;20315;-67
2023/10/09 04:08:13;;;;;;;33.80;32.30;;;;;;;-141.02;100.00;41565.31;5135656;27;20260;-66
2023/10/09 04:10:52;;;;;;;33.70;32.20;;;;;;;-141.02;100.00;41557.63;5135734;27;20181;-67
2023/10/09 04:13:25;;;;;;;34.67;33.08;;;;;;;-141.02;100.00;41582.56;5135652;27;20185;-67
2023/10/09 04:15:53;;;;;;;24.60;23.60;;;;;;;-141.02;100.00;41594.09;5135268;27;20686;-66
2023/10/09 04:18:32;;;;;;;24.70;23.70;;;;;;;-141.02;100.00;41643.97;5135524;27;20189;-68
2023/10/09 04:21:18;;;;;;;32.03;30.63;;;;;;;-141.02;100.00;41722.66;5135503;27;20211;-66
2023/10/09 04:24:09;;;;;;;31.30;29.90;;;;;;;-141.02;100.00;41891.56;5135136;27;20180;-64
2023/10/09 04:26:37;;;;;;;32.38;30.98;;;;;;;-141.02;100.00;41924.19;5135310;27;20216;-66
2023/10/09 04:29:06;;;;;;;32.10;30.70;;;;;;;-141.02;100.00;41891.56;5135303;27;20215;-67
2023/10/09 04:31:37;;;;;;;30.95;29.60;;;;;;;-141.02;100.00;41830.13;5134951;27;20193;-66
2023/10/09 04:36:49;;;;;;;32.88;31.38;;;;;;;-141.02;100.00;41857.00;5134118;27;20292;-66
2023/10/09 04:39:35;;;;;;;31.08;29.67;;;;;;;-141.02;100.00;41826.31;5135152;27;20188;-67
2023/10/09 04:47:49;;;;;;;28.17;26.98;;;;;;;-141.02;100.00;41761.06;5134422;27;20227;-66
2023/10/09 04:53:22;;;;;;;28.58;27.38;;;;;;;-141.02;100.00;41607.53;5134637;27;20197;-67
2023/10/09 04:55:53;;;;;;;29.98;28.67;;;;;;;-141.02;100.00;41580.66;5134309;27;20284;-65
2023/10/09 04:58:26;;;;;;;30.45;29.15;;;;;;;-141.02;100.00;41477.03;5134732;27;20245;-64
2023/10/09 05:01:12;;;;;;;30.30;29.00;;;;;;;-141.02;100.00;41409.88;5134362;27;20180;-66
2023/10/09 05:03:52;;;;;;;27.65;26.50;;;;;;;-141.02;100.00;41381.09;5134723;27;20192;-67
2023/10/09 05:06:32;;;;;;;31.30;29.90;;;;;;;-141.02;100.00;41312.00;5134714;27;20213;-67
2023/10/09 05:09:08;;;;;;;28.77;27.58;;;;;;;-141.02;100.00;41325.44;5134155;27;20287;-66
2023/10/09 05:11:53;;;;;;;29.63;28.33;;;;;;;-141.02;100.00;41281.31;5134253;27;20666;-62
2023/10/09 05:14:38;;;;;;;30.63;29.33;;;;;;;-141.02;100.00;41283.22;5134385;27;20275;-66
2023/10/09 05:17:07;;;;;;;31.20;29.80;;;;;;;-141.02;100.00;41331.19;5134200;27;20725;-63
2023/10/09 05:19:54;;;;;;;30.93;29.57;;;;;;;-141.02;100.00;41392.59;5133936;27;20587;-66
2023/10/09 05:22:36;;;;;;;29.95;28.65;;;;;;;-141.02;100.00;41461.69;5134227;27;20193;-64
2023/10/09 05:25:15;;;;;;;32.58;31.08;;;;;;;-141.02;100.00;41572.97;5134297;27;20268;-64
2023/10/09 05:27:50;;;;;;;35.50;33.80;;;;;;;-141.02;100.00;41613.28;5133758;27;20223;-65
2023/10/09 05:30:26;;;;;;;37.10;35.30;;;;;;;-141.02;100.00;41701.56;5134168;27;20180;-67
2023/10/09 05:33:27;;;;;;;14.95;14.38;;;;;;;-141.02;100.00;41726.50;5134057;27;20211;-66
2023/10/09 05:36:05;;;;;;;15.50;14.90;;;;;;;-141.02;98.06;41793.69;5133517;27;20201;-62
2023/10/09 05:38:35;;;;;;;15.98;15.38;;;;;;;-141.02;94.72;41876.19;5133511;27;20705;-66
2023/10/09 05:41:45;;;;;;;34.30;32.60;;;;;;;-141.02;93.09;41997.13;5133601;27;20556;-66
2023/10/09 05:46:36;;;;;;;38.60;36.70;;;;;;;-141.02;90.73;42050.84;5133615;27;20215;-66
2023/10/09 05:49:19;;;;;;;40.30;38.20;;;;;;;-141.02;91.04;42033.56;5133705;27;20203;-66
2023/10/09 05:51:53;;;;;;;39.67;37.67;;;;;;;-141.02;89.65;42104.59;5133809;27;20528;-65
2023/10/09 05:58:42;;;;;;;40.53;38.45;;;;;;;-141.02;86.46;42175.59;5133221;27;20583;-67
2023/10/09 06:05:51;;;;;;;18.25;17.45;;;;;;;-141.02;85.31;42256.22;5133795;27;20187;-66
2023/10/09 06:08:24;;;;;;;18.00;17.20;;;;;;;-141.02;83.93;42300.38;5133556;27;20287;-67
2023/10/09 06:11:05;;;;;;;27.92;26.63;;;;;;;-141.02;82.99;42306.13;5133264;27;20276;-67
2023/10/09 06:13:46;;;;;;;39.05;37.05;;;;;;;-141.02;81.94;42306.13;5133458;27;20241;-66
2023/10/09 06:16:34;;;;;;;39.88;37.88;;;;;;;-141.02;81.29;42334.91;5133060;27;20200;-66
2023/10/09 06:19:11;;;;;;;41.22;39.13;;;;;;;-141.02;81.03;42346.44;5133401;27;20184;-65
2023/10/09 06:24:23;;;;;;;66.72;63.28;;;;;;;-141.02;80.33;42398.25;5132829;27;20196;-67
2023/10/09 06:27:24;;;;;;;39.17;37.17;;;;;;;-141.02;80.23;42386.75;5133183;28;20232;-66
2023/10/09 06:30:13;;;;;;;17.80;17.00;;;;;;;-141.02;79.46;42413.63;5132907;28;20283;-66
2023/10/09 06:32:50;;;;;;;17.92;17.13;;;;;;;-141.02;77.96;42476.97;5132878;28;20700;-65
2023/10/09 06:35:18;;;;;;;17.42;16.63;;;;;;;-141.02;76.98;42494.25;5132990;28;20565;-66
2023/10/09 06:43:26;;;;;;;36.55;34.85;;;;;;;-141.02;75.79;42524.94;5133022;28;20234;-65
2023/10/09 06:45:57;;;;;;;16.67;15.98;;;;;;;-141.02;75.73;42563.34;5132761;28;20188;-66
2023/10/09 06:48:44;;;;;;;17.60;16.90;;;;;;;-141.02;75.55;42521.13;5133124;28;20271;-66
2023/10/09 06:51:15;;;;;;;17.30;16.60;;;;;;;-141.02;75.44;42517.28;5133050;28;20220;-66
2023/10/09 06:54:06;;;;;;;17.20;16.50;;;;;;;-141.02;74.44;42551.81;5133102;28;20185;-67
2023/10/09 06:59:21;;;;;;;18.45;17.63;;;;;;;-141.02;73.38;42609.41;5132420;28;20201;-67
2023/10/09 07:01:51;;;;;;;18.27;17.48;;;;;;;-141.02;73.37;42617.09;5133063;28;20189;-68
2023/10/09 07:04:45;;;;;;;18.23;17.42;;;;;;;-141.02;72.08;42624.78;5133057;27;20185;-66
2023/10/09 07:07:12;;;;;;;17.95;17.15;;;;;;;-141.02;71.92;42619.00;5136531;27;20232;-67
2023/10/09 07:10:28;;;;;;;18.40;17.60;;;;;;;-141.02;70.42;42670.84;5136864;27;20181;-67
2023/10/09 07:12:32;;;;;;;18.30;17.50;;;;;;;-141.02;69.82;42670.84;5136485;27;20192;-68
2023/10/09 07:16:23;;;;;;;18.45;17.55;;;;;;;-141.02;68.56;42686.19;5136857;27;20673;-67
2023/10/09 07:17:52;;;;;;;18.33;17.42;;;;;;;-141.02;68.01;42766.81;5136338;27;20287;-64
2023/10/09 07:23:13;;;;;;;18.30;17.40;;;;;;;-141.02;67.10;42809.06;5136195;27;20196;-67
2023/10/09 07:25:54;;;;;;;18.02;17.23;;;;;;;-141.02;66.33;42818.66;5136288;27;20188;-67
2023/10/09 07:28:42;;;;;;;18.17;17.38;;;;;;;-141.02;65.81;42889.69;5136188;27;20761;-66
2023/10/09 07:31:23;;;;;;;17.73;16.92;;;;;;;-141.02;65.89;42974.16;5136136;27;20196;-67
2023/10/09 07:33:56;;;;;;;17.90;17.10;;;;;;;-141.02;65.11;42991.44;5136149;27;20642;-68
2023/10/09 07:36:34;;;;;;;17.83;17.02;;;;;;;-141.02;64.42;43047.13;5135691;27;20188;-67
2023/10/09 07:39:02;;;;;;;18.17;17.38;;;;;;;-141.02;63.78;43081.66;5136320;27;20192;-64
2023/10/09 07:41:44;;;;;;;17.55;16.75;;;;;;;-141.02;63.80;43120.06;5135971;27;20255;-66
2023/10/09 07:44:34;;;;;;;17.25;16.55;;;;;;;-141.02;63.23;43112.41;5136276;27;20199;-67
2023/10/09 07:47:22;;;;;;;17.55;16.75;;;;;;;-141.02;62.62;43181.50;5136160;27;20220;-67
2023/10/09 07:49:53;;;;;;;17.38;16.58;;;;;;;-141.02;61.81;43216.06;5136132;27;20185;-66
2023/10/09 07:52:26;;;;;;;17.08;16.38;;;;;;;-141.02;61.76;43239.09;5136109;27;20188;-67
2023/10/09 07:55:01;;;;;;;16.77;16.08;;;;;;;-141.02;60.65;43258.31;5136025;27;20264;-62
2023/10/09 07:57:38;;;;;;;17.02;16.30;;;;;;;-141.02;60.18;43277.50;5136057;27;20577;-67
2023/10/09 08:00:36;;;;;;;17.20;16.40;;;;;;;-141.02;60.50;43329.34;5135598;27;20188;-67
2023/10/09 08:03:09;;;;;;;17.20;16.40;;;;;;;-141.02;60.27;43369.66;5135475;27;20220;-67
2023/10/09 08:05:44;;;;;;;16.73;16.02;;;;;;;-141.02;60.65;43404.22;5135847;27;20184;-67
2023/10/09 08:08:39;;;;;;;17.00;16.27;;;;;;;-141.02;60.64;43346.63;5135342;27;20716;-67
2023/10/09 08:14:00;;;;;;;17.13;16.33;;;;;;;-141.02;59.78;43381.19;5125878;27;20330;-66
2023/10/09 08:16:36;;;;;;;17.17;16.38;;;;;;;-141.02;59.40;43408.06;5135389;27;20181;-68
2023/10/09 08:19:20;;;;;;;17.20;16.40;;;;;;;-141.02;60.10;43411.91;5135292;27;20225;-67
2023/10/09 08:22:16;;;;;;;17.25;16.45;;;;;;;-141.02;60.73;43386.94;5135194;27;20180;-68
2023/10/09 08:24:42;;;;;;;17.30;16.50;;;;;;;-141.02;59.79;43392.72;5134950;27;20567;-67
2023/10/09 08:27:46;;;;;;;17.10;16.30;;;;;;;-141.02;59.63;43390.78;5135112;27;20689;-67
2023/10/09 08:30:28;;;;;;;17.17;16.38;;;;;;;-141.02;58.97;43377.34;5135394;27;20200;-68
2023/10/09 08:33:02;;;;;;;16.92;16.13;;;;;;;-141.02;58.13;43427.28;5134943;27;20193;-67
2023/10/09 08:35:33;;;;;;;16.88;16.08;;;;;;;-141.02;57.63;43396.56;5135276;27;20270;-68
2023/10/09 08:38:07;;;;;;;16.58;15.88;;;;;;;-141.02;58.22;43446.47;5134400;27;20229;-68
2023/10/09 08:40:37;;;;;;;17.20;16.40;;;;;;;-141.02;58.47;43427.28;5135150;27;20211;-67
2023/10/09 08:43:10;;;;;;;16.35;15.65;;;;;;;-141.02;57.72;43438.78;5135043;27;20193;-67
2023/10/09 08:45:40;;;;;;;16.80;16.00;;;;;;;-141.02;59.10;43452.22;5135069;27;20265;-68
2023/10/09 08:48:15;;;;;;;16.88;16.08;;;;;;;-141.02;59.25;43444.56;5134648;27;20686;-67
2023/10/09 08:50:43;;;;;;;17.08;16.27;;;;;;;-141.02;58.23;43408.06;5134984;27;20184;-69
2023/10/09 08:53:11;;;;;;;16.88;16.08;;;;;;;-141.02;57.00;43408.06;5134874;27;20196;-67
2023/10/09 08:55:39;;;;;;;16.90;16.10;;;;;;;-141.02;57.05;43461.84;5134549;27;20200;-67
2023/10/09 08:58:20;;;;;;;16.40;15.70;;;;;;;-141.02;57.77;43484.88;5134740;27;20275;-68
2023/10/09 09:00:49;;;;;;;16.20;15.50;;;;;;;-141.02;58.04;43469.50;5134428;27;20276;-67
2023/10/09 09:03:17;;;;;;;16.27;15.57;;;;;;;-141.02;57.17;43463.75;5134645;27;20653;-69
2023/10/09 09:05:47;;;;;;;16.70;15.90;;;;;;;-141.02;57.01;43442.63;5134748;27;20568;-67
2023/10/09 09:08:36;;;;;;;16.92;16.13;;;;;;;-141.02;56.52;43438.78;5134627;27;20224;-63
2023/10/09 09:11:12;;;;;;;16.48;15.77;;;;;;;-141.02;56.90;43465.66;5134439;27;20188;-58
2023/10/09 09:13:42;;;;;;;16.52;15.82;;;;;;;-141.02;56.44;43527.13;5134192;27;20305;-66
2023/10/09 09:16:17;;;;;;;16.25;15.55;;;;;;;-141.02;56.08;43523.28;5134329;27;20233;-68
2023/10/09 09:18:56;;;;;;;16.10;15.40;;;;;;;-141.02;55.63;43507.91;5134334;27;20188;-66
2023/10/09 09:21:23;;;;;;;16.70;15.90;;;;;;;-141.02;55.93;43540.56;5134317;27;20219;-64
2023/10/09 09:24:00;;;;;;;16.25;15.55;;;;;;;-141.02;55.79;43496.41;5133938;27;20226;-63
2023/10/09 09:26:44;;;;;;;15.98;15.27;;;;;;;-141.02;55.00;43546.31;5134186;27;20180;-67
2023/10/09 09:29:12;;;;;;;16.30;15.60;;;;;;;-141.02;55.61;43600.09;5133481;27;20271;-66
2023/10/09 09:31:53;;;;;;;16.15;15.45;;;;;;;-141.02;55.54;43598.16;5133726;27;20288;-66
2023/10/09 09:34:25;;;;;;;16.17;15.48;;;;;;;-141.02;55.10;43611.59;5134091;27;20272;-64
2023/10/09 09:36:54;;;;;;;16.35;15.73;;;;;;;-141.02;54.96;43634.66;5133734;27;20255;-67
2023/10/09 09:39:29;;;;;;;16.77;16.08;;;;;;;-141.02;55.02;43650.00;5133747;27;20185;-68
2023/10/09 09:42:03;;;;;;;16.77;16.08;;;;;;;-141.02;53.52;43603.94;5133923;27;20210;-68
2023/10/09 09:44:33;;;;;;;16.83;16.13;;;;;;;-141.02;54.79;43611.59;5133545;27;20180;-64
2023/10/09 09:47:06;;;;;;;16.35;15.75;;;;;;;-141.02;54.77;43621.22;5133756;27;20188;-65
2023/10/09 09:49:38;;;;;;;15.77;15.18;;;;;;;-141.02;54.44;43577.03;5133557;27;20181;-67
2023/10/09 09:52:09;;;;;;;15.77;15.18;;;;;;;-141.02;53.78;43626.97;5133473;27;20180;-64
2023/10/09 09:54:38;;;;;;;15.70;15.10;;;;;;;-141.02;54.73;43646.16;5133697;27;20263;-66
2023/10/09 09:57:10;;;;;;;15.75;15.10;;;;;;;-141.02;54.90;43699.94;5133284;27;20206;-67
2023/10/09 09:59:49;;;;;;;15.63;14.98;;;;;;;-141.02;53.98;43707.63;5133468;27;20195;-68
2023/10/09 10:02:23;;;;;;;34.72;32.92;;;;;;;-141.02;53.50;43680.72;5133393;27;20188;-66
2023/10/09 10:04:56;;;;;;;46.95;44.65;;;;;;;-141.02;54.51;43694.19;5133615;27;20184;-68
2023/10/09 10:07:26;;;;;;;41.20;39.10;;;;;;;-141.02;53.52;43699.94;5133132;27;20220;-68
2023/10/09 10:09:57;;;;;;;40.30;38.30;;;;;;;-141.02;53.67;43682.66;5133185;27;20684;-68
2023/10/09 10:13:01;;;;;;;38.47;36.58;;;;;;;-141.02;53.63;43719.13;5133179;27;20717;-68
2023/10/09 10:16:00;;;;;;;39.85;37.85;;;;;;;-141.02;52.70;43703.78;5133444;27;20211;-68
2023/10/09 10:18:35;;;;;;;40.70;38.60;;;;;;;-141.02;53.17;43747.94;5133406;27;20218;-68
2023/10/09 10:21:16;;;;;;;43.08;40.80;;;;;;;-141.02;52.67;43730.66;5133351;27;20190;-67
2023/10/09 10:23:46;;;;;;;38.65;36.65;;;;;;;-141.02;52.86;43751.78;5133358;27;20261;-66
2023/10/09 10:26:26;;;;;;;38.47;36.50;;;;;;;-141.02;52.72;43726.81;5133284;27;20184;-66
2023/10/09 10:29:22;;;;;;;37.55;35.65;;;;;;;-141.02;52.67;43759.47;5133363;27;20212;-68
2023/10/09 10:31:57;;;;;;;39.50;37.50;;;;;;;-141.02;52.80;43784.44;5132976;27;20188;-69
2023/10/09 10:34:26;;;;;;;32.97;31.38;;;;;;;-141.02;53.40;43792.09;5132859;28;20195;-70
2023/10/09 10:36:59;;;;;;;39.65;37.65;;;;;;;-141.02;52.45;43755.63;5132934;27;20304;-68
2023/10/09 10:39:45;;;;;;;46.25;43.75;;;;;;;-141.02;52.47;43788.28;5135089;27;20604;-62
2023/10/09 10:42:33;;;;;;;41.03;38.90;;;;;;;-141.02;51.83;43757.53;5137545;27;20279;-68
2023/10/09 10:45:02;;;;;;;38.10;36.20;;;;;;;-141.02;52.11;43865.09;5137082;27;20650;-69
2023/10/09 10:47:35;;;;;;;38.10;36.20;;;;;;;-141.02;52.74;43836.28;5136907;27;20310;-69
2023/10/09 10:50:35;;;;;;;37.05;35.25;;;;;;;-141.02;51.65;43780.59;5137315;27;20193;-67
2023/10/09 10:53:13;;;;;;;35.85;34.15;;;;;;;-141.02;52.86;43842.03;5136774;27;20200;-65
2023/10/09 10:55:48;;;;;;;38.35;36.45;;;;;;;-141.02;52.60;43830.50;5136948;27;20650;-68
2023/10/09 10:58:25;;;;;;;15.88;15.27;;;;;;;-141.02;52.44;43772.91;5137205;27;20248;-68
2023/10/09 11:01:14;;;;;;;15.80;15.20;;;;;;;-141.02;52.93;43799.78;5137117;27;20192;-66
2023/10/09 11:06:38;;;;;;;15.63;15.02;;;;;;;-141.02;53.29;43790.19;5136657;27;20196;-68
2023/10/09 11:09:22;;;;;;;16.33;15.63;;;;;;;-141.02;53.66;43853.56;5136929;27;20212;-68
2023/10/09 11:11:50;;;;;;;15.65;15.05;;;;;;;-141.02;53.02;43809.38;5136882;27;20195;-68
2023/10/09 11:14:23;;;;;;;16.08;15.48;;;;;;;-141.02;52.85;43834.34;5136530;27;20227;-68
2023/10/09 11:16:50;;;;;;;16.13;15.52;;;;;;;-141.02;53.18;43842.03;5136764;27;20244;-68
2023/10/09 11:19:31;;;;;;;15.60;15.00;;;;;;;-141.02;53.31;43859.31;5136789;27;20220;-70
2023/10/09 11:22:28;;;;;;;16.20;15.50;;;;;;;-141.02;52.94;43842.03;5136732;27;20224;-68
2023/10/09 11:25:11;;;;;;;15.60;15.00;;;;;;;-141.02;52.46;43840.13;5136178;27;20193;-64
2023/10/09 11:27:40;;;;;;;15.70;15.10;;;;;;;-141.02;52.77;43840.13;5136197;27;20211;-69
2023/10/09 11:30:10;;;;;;;15.55;14.95;;;;;;;-141.02;51.91;43845.88;5136602;27;20654;-67
2023/10/09 11:32:38;;;;;;;15.57;14.98;;;;;;;-141.02;51.55;43849.72;5136438;27;20269;-67
2023/10/09 11:35:15;;;;;;;16.40;15.70;;;;;;;-141.02;51.89;43855.47;5136027;27;20197;-65
2023/10/09 11:37:43;;;;;;;15.80;15.10;;;;;;;-141.02;52.27;43840.13;5135891;27;20227;-66
2023/10/09 11:40:31;;;;;;;15.95;15.25;;;;;;;-141.02;52.48;43819.00;5136423;27;20275;-69
2023/10/09 11:43:02;;;;;;;15.77;15.10;;;;;;;-141.02;52.29;43842.03;5136363;27;20201;-68
2023/10/09 11:45:29;;;;;;;15.25;14.65;;;;;;;-141.02;52.01;43865.09;5136349;27;20280;-66
2023/10/09 11:47:58;;;;;;;15.82;15.18;;;;;;;-141.02;51.27;43845.88;5135661;27;20223;-68
2023/10/09 11:50:56;;;;;;;15.75;15.15;;;;;;;-141.02;51.59;43842.03;5135454;27;20617;-64
2023/10/09 11:53:36;;;;;;;16.30;15.60;;;;;;;-141.02;51.89;43878.53;5127493;27;20196;-70
2023/10/09 11:56:03;;;;;;;16.05;15.35;;;;;;;-141.02;51.86;43891.97;5136099;27;20189;-68
2023/10/09 11:58:31;;;;;;;16.08;15.38;;;;;;;-141.02;51.71;43893.88;5135636;27;20196;-69
2023/10/09 12:01:03;;;;;;;15.80;15.20;;;;;;;-141.02;51.32;43865.09;5135908;27;20292;-67
2023/10/09 12:03:31;;;;;;;15.88;15.27;;;;;;;-141.02;51.43;43853.56;5135960;27;20188;-68
2023/10/09 12:06:04;;;;;;;16.70;16.00;;;;;;;-141.02;50.99;43872.75;5135521;27;20344;-68
2023/10/09 12:08:33;;;;;;;16.15;15.45;;;;;;;-141.02;51.37;43865.09;5135387;27;20248;-69
2023/10/09 12:11:02;;;;;;;16.15;15.45;;;;;;;-141.02;51.79;43911.16;5135386;27;20196;-67
2023/10/09 12:13:31;;;;;;;15.73;15.13;;;;;;;-141.02;51.60;43868.91;5135346;27;20232;-69
2023/10/09 12:15:58;;;;;;;16.27;15.57;;;;;;;-141.02;51.04;43868.91;5135433;27;20189;-69
2023/10/09 12:18:25;;;;;;;16.35;15.68;;;;;;;-141.02;51.28;43872.75;5135233;27;20227;-69
2023/10/09 12:20:54;;;;;;;16.40;15.70;;;;;;;-141.02;51.29;43895.81;5135531;27;20213;-68
2023/10/09 12:23:22;;;;;;;15.85;15.25;;;;;;;-141.02;50.83;43880.44;5135098;27;20283;-67
2023/10/09 12:25:56;;;;;;;16.00;15.40;;;;;;;-141.02;50.91;43903.50;5135430;27;20193;-68
2023/10/09 12:28:23;;;;;;;16.17;15.57;;;;;;;-141.02;50.58;43861.25;5135330;27;20289;-69
2023/10/09 12:30:51;;;;;;;16.08;15.48;;;;;;;-141.02;50.82;43907.31;5135111;27;20278;-67
2023/10/09 12:33:19;;;;;;;16.17;15.57;;;;;;;-141.02;51.34;43907.31;5135336;27;20196;-69
2023/10/09 12:35:47;;;;;;;15.88;15.27;;;;;;;-141.02;51.66;43945.72;5135220;27;20275;-70
2023/10/09 12:38:18;;;;;;;16.42;15.77;;;;;;;-141.02;51.79;43897.72;5134826;27;20228;-69
2023/10/09 12:40:51;;;;;;;16.00;15.40;;;;;;;-141.02;51.50;43907.31;5134848;27;20650;-69
2023/10/09 12:43:21;;;;;;;15.45;14.85;;;;;;;-141.02;51.08;43884.28;5134874;27;20181;-68
2023/10/09 12:45:48;;;;;;;16.08;15.48;;;;;;;-141.02;50.90;43899.66;5135093;27;20184;-68
2023/10/09 12:48:15;;;;;;;16.10;15.50;;;;;;;-141.02;50.85;43865.09;5134954;27;20320;-68
2023/10/09 12:50:44;;;;;;;15.70;15.10;;;;;;;-141.02;50.84;43907.31;5134943;27;20193;-69
2023/10/09 12:53:12;;;;;;;15.68;15.07;;;;;;;-141.02;51.35;43899.66;5134608;27;20192;-68
2023/10/09 12:55:41;;;;;;;15.80;15.20;;;;;;;-141.02;51.75;43916.94;5134558;27;20242;-67
2023/10/09 12:58:09;;;;;;;16.13;15.52;;;;;;;-141.02;51.72;43930.38;5134822;27;20196;-69
2023/10/09 13:00:43;;;;;;;15.90;15.30;;;;;;;-141.02;52.04;43930.38;5134486;27;20197;-68
2023/10/09 13:03:17;;;;;;;15.57;14.98;;;;;;;-141.02;52.21;43949.56;5133336;27;20241;-69
2023/10/09 13:05:54;;;;;;;16.10;15.40;;;;;;;-141.02;51.96;43928.44;5134747;27;20275;-69
2023/10/09 13:08:22;;;;;;;15.77;15.18;;;;;;;-141.02;51.34;43926.53;5134215;27;20241;-68